Tonopah, NV

6:51 AM PDT on August 30, 2014 (GMT -0700)
MesoWest Tonopah Summit NV US NV DOT | Change Station
CLOSE
Current Station
Personal Weather Station
Location: Tonopah, NV
Elevation: 6221 ft
Nearby Weather Stations
Active Advisory: Fire Weather Warning

Elev 6221 ft 38.05 °N, 117.22 °W | Updated 33 minutes ago

Partly Cloudy
Partly Cloudy
65 °F
Feels Like 65 °F
N
9
Wind Variable Wind from West
Gusts 12.0 mph

Today
High -- | Low -- °F
--% Chance of Precip.
Yesterday
High -- | Low -- °F
Precip. -- in
6:17 AM 7:21 PM
Waxing Crescent, 22% visible
Pressure 29.83 in
Visibility 10.0 miles
Clouds Clear
Dew Point 27 °F
Humidity 24%
Rainfall -999.00 in
Snow Depth Not available.
UV 0 out of 12
Pollen 9.10 out of 12
Air Quality Not available.
Flu Activity Not available.
METAR KTPH 301256Z AUTO 05005KT 10SM CLR 17/M04 A3007 RMK AO2 SLP100 T01671039

More Conditions Fewer Conditions

Pressure 29.83 in
Visibility 10.0 miles
Clouds Clear
Dew Point 27 °F
Humidity 24%
Rainfall -999.00 in
Snow Depth Not available.
UV 0 out of 12
Pollen 9.10 out of 12
Air Quality Not available.
Flu Activity Not available.
METAR KTPH 301256Z AUTO 05005KT 10SM CLR 17/M04 A3007 RMK AO2 SLP100 T01671039

More Conditions Fewer Conditions

10-Day Weather Forecast

Almanac

Astronomy

Aug. 30, 2014 Rise Set
Actual Time 6:17 AM PDT 7:21 PM PDT
Civil Twilight 5:49 AM PDT 7:48 PM PDT
Nautical Twilight 5:17 AM PDT 8:20 PM PDT
Astronomical Twilight 4:44 AM PDT 8:53 PM PDT
Moon 11:03 AM PDT 10:03 PM PDT
Length of Visible Light 13h 58m
Length of Day
13h 04m
Tomorrow will be 2m 21s shorter.
Waxing Crescent, 22% of the Moon is Illuminated
Today
Waxing Crescent
Sep 2
First Quarter
Sep 8
Full
Sep 15
Last Quarter
Sep 24
New

Today's Extremes

State Highs State Lows

Community

WunderPhotos

Upload Photos

1,748,510 photos uploaded!

WunderBlogs® & News

By Dr. Jeff Masters
Director of Meteorology, Weather Underground
By Kari Strenfel
Meteorologist, Weather Underground
By Christopher C. Burt
Weather Historian, Weather Underground
August 30, 2014
August 30, 2014
August 30, 2014

Nearby

Snow Depth

Station Depth Elevation
Big Creek Summit 1 in 8700 ft
Diamond Peak 0 in 8000 ft
Lewis Peak 0 in 7400 ft
Mt. Rose Ski Area 0 in 8850 ft
Corral Canyon 0 in 8500 ft

Earthquake Activity

City Distance Mag. Time & Date
No recent earthquake activity has been reported nearby.
Minimum magnitude displayed is 2.5.

Coastal Water Temperatures

Place Temperature
No Stations Reporting

Nearby Weather Stations